sensor_id;sensor_type;location;lat;lon;timestamp;pressure;altitude;pressure_sealevel;temperature;humidity
78142;BME280;67393;52.620;13.482;2023-12-29T00:02:24;100464.34;;;7.90;92.60
78142;BME280;67393;52.620;13.482;2023-12-29T00:04:50;100465.16;;;7.94;92.53
78142;BME280;67393;52.620;13.482;2023-12-29T00:07:17;100461.59;;;7.96;92.12
78142;BME280;67393;52.620;13.482;2023-12-29T00:09:47;100468.56;;;7.99;92.18
78142;BME280;67393;52.620;13.482;2023-12-29T00:12:14;100457.13;;;7.98;91.92
78142;BME280;67393;52.620;13.482;2023-12-29T00:14:40;100463.31;;;7.97;91.85
78142;BME280;67393;52.620;13.482;2023-12-29T00:17:07;100455.22;;;8.05;91.61
78142;BME280;67393;52.620;13.482;2023-12-29T00:19:33;100447.19;;;8.10;90.75
78142;BME280;67393;52.620;13.482;2023-12-29T00:22:03;100439.31;;;8.08;90.79
78142;BME280;67393;52.620;13.482;2023-12-29T00:24:30;100441.88;;;8.11;90.87
78142;BME280;67393;52.620;13.482;2023-12-29T00:26:57;100442.81;;;8.08;91.03
78142;BME280;67393;52.620;13.482;2023-12-29T00:29:23;100442.75;;;8.12;91.93
78142;BME280;67393;52.620;13.482;2023-12-29T00:31:50;100443.63;;;8.11;91.60
78142;BME280;67393;52.620;13.482;2023-12-29T00:34:16;100442.88;;;8.05;91.48
78142;BME280;67393;52.620;13.482;2023-12-29T00:36:43;100437.59;;;8.05;92.01
78142;BME280;67393;52.620;13.482;2023-12-29T00:39:09;100441.03;;;8.09;91.27
78142;BME280;67393;52.620;13.482;2023-12-29T00:41:35;100432.28;;;8.05;91.27
78142;BME280;67393;52.620;13.482;2023-12-29T00:44:03;100425.34;;;8.01;91.78
78142;BME280;67393;52.620;13.482;2023-12-29T00:46:29;100431.50;;;8.02;91.32
78142;BME280;67393;52.620;13.482;2023-12-29T00:48:56;100423.41;;;8.10;90.28
78142;BME280;67393;52.620;13.482;2023-12-29T00:51:22;100409.28;;;8.11;90.79
78142;BME280;67393;52.620;13.482;2023-12-29T00:53:48;100412.88;;;8.06;90.50
78142;BME280;67393;52.620;13.482;2023-12-29T00:56:15;100402.31;;;8.06;90.98
78142;BME280;67393;52.620;13.482;2023-12-29T00:58:41;100405.81;;;8.08;90.24
78142;BME280;67393;52.620;13.482;2023-12-29T01:01:08;100403.13;;;8.10;90.21
78142;BME280;67393;52.620;13.482;2023-12-29T01:03:35;100400.41;;;8.13;89.82
78142;BME280;67393;52.620;13.482;2023-12-29T01:06:01;100396.94;;;8.11;89.83
78142;BME280;67393;52.620;13.482;2023-12-29T01:08:28;100394.38;;;8.06;89.92
78142;BME280;67393;52.620;13.482;2023-12-29T01:10:54;100398.84;;;8.04;90.01
78142;BME280;67393;52.620;13.482;2023-12-29T01:13:21;100386.47;;;8.06;90.18
78142;BME280;67393;52.620;13.482;2023-12-29T01:15:47;100395.16;;;8.12;88.84
78142;BME280;67393;52.620;13.482;2023-12-29T01:18:14;100381.97;;;8.12;89.47
78142;BME280;67393;52.620;13.482;2023-12-29T01:20:41;100380.13;;;8.14;88.49
78142;BME280;67393;52.620;13.482;2023-12-29T01:23:07;100387.19;;;8.13;88.05
78142;BME280;67393;52.620;13.482;2023-12-29T01:25:33;100390.69;;;8.15;88.51
78142;BME280;67393;52.620;13.482;2023-12-29T01:28:00;100387.31;;;8.08;88.27
78142;BME280;67393;52.620;13.482;2023-12-29T01:30:26;100379.25;;;8.13;88.11
78142;BME280;67393;52.620;13.482;2023-12-29T01:32:53;100372.28;;;8.11;88.21
78142;BME280;67393;52.620;13.482;2023-12-29T01:35:19;100378.34;;;8.16;87.38
78142;BME280;67393;52.620;13.482;2023-12-29T01:37:45;100376.50;;;8.18;88.12
78142;BME280;67393;52.620;13.482;2023-12-29T01:40:12;100378.41;;;8.13;87.53
78142;BME280;67393;52.620;13.482;2023-12-29T01:42:38;100378.28;;;8.17;87.19
78142;BME280;67393;52.620;13.482;2023-12-29T01:45:05;100376.50;;;8.18;87.03
78142;BME280;67393;52.620;13.482;2023-12-29T01:47:34;100365.91;;;8.19;86.73
78142;BME280;67393;52.620;13.482;2023-12-29T01:50:01;100373.06;;;8.16;87.41
78142;BME280;67393;52.620;13.482;2023-12-29T01:52:27;100364.97;;;8.22;86.70
78142;BME280;67393;52.620;13.482;2023-12-29T01:54:54;100361.44;;;8.23;86.49
78142;BME280;67393;52.620;13.482;2023-12-29T01:57:21;100355.22;;;8.24;86.33
78142;BME280;67393;52.620;13.482;2023-12-29T01:59:47;100350.06;;;8.18;86.92
78142;BME280;67393;52.620;13.482;2023-12-29T02:02:14;100344.84;;;8.15;87.32
78142;BME280;67393;52.620;13.482;2023-12-29T02:04:41;100336.16;;;8.11;87.67
78142;BME280;67393;52.620;13.482;2023-12-29T02:07:08;100356.28;;;8.17;86.61
78142;BME280;67393;52.620;13.482;2023-12-29T02:09:34;100335.84;;;8.23;86.08
78142;BME280;67393;52.620;13.482;2023-12-29T02:12:02;100335.06;;;8.20;85.96
78142;BME280;67393;52.620;13.482;2023-12-29T02:14:28;100334.94;;;8.24;85.71
78142;BME280;67393;52.620;13.482;2023-12-29T02:17:10;100340.19;;;8.26;85.81
78142;BME280;67393;52.620;13.482;2023-12-29T02:19:42;100333.97;;;8.28;85.80
78142;BME280;67393;52.620;13.482;2023-12-29T02:22:10;100327.06;;;8.23;86.11
78142;BME280;67393;52.620;13.482;2023-12-29T02:24:38;100314.72;;;8.22;85.95
78142;BME280;67393;52.620;13.482;2023-12-29T02:29:59;100307.59;;;8.25;85.46
78142;BME280;67393;52.620;13.482;2023-12-29T02:32:29;100309.25;;;8.29;85.78
78142;BME280;67393;52.620;13.482;2023-12-29T02:34:57;100305.78;;;8.27;85.61
78142;BME280;67393;52.620;13.482;2023-12-29T02:37:26;100305.75;;;8.29;85.62
78142;BME280;67393;52.620;13.482;2023-12-29T02:39:55;100308.25;;;8.33;85.82
78142;BME280;67393;52.620;13.482;2023-12-29T02:42:22;100297.69;;;8.33;85.63
78142;BME280;67393;52.620;13.482;2023-12-29T02:44:48;100297.63;;;8.38;84.51
78142;BME280;67393;52.620;13.482;2023-12-29T02:47:15;100285.22;;;8.40;85.36
78142;BME280;67393;52.620;13.482;2023-12-29T02:49:41;100294.00;;;8.42;84.77
78142;BME280;67393;52.620;13.482;2023-12-29T02:52:08;100300.03;;;8.47;84.46
78142;BME280;67393;52.620;13.482;2023-12-29T02:54:35;100296.38;;;8.51;84.23
78142;BME280;67393;52.620;13.482;2023-12-29T02:57:01;100289.38;;;8.49;84.24
78142;BME280;67393;52.620;13.482;2023-12-29T02:59:28;100280.53;;;8.51;84.53
78142;BME280;67393;52.620;13.482;2023-12-29T03:01:54;100283.09;;;8.54;84.70
78142;BME280;67393;52.620;13.482;2023-12-29T03:04:21;100281.59;;;8.44;84.86
78142;BME280;67393;52.620;13.482;2023-12-29T03:06:47;100279.84;;;8.43;84.84
78142;BME280;67393;52.620;13.482;2023-12-29T03:09:14;100284.22;;;8.44;84.46
78142;BME280;67393;52.620;13.482;2023-12-29T03:11:40;100275.34;;;8.47;84.73
78142;BME280;67393;52.620;13.482;2023-12-29T03:14:07;100287.75;;;8.45;84.46
78142;BME280;67393;52.620;13.482;2023-12-29T03:16:33;100278.91;;;8.46;85.10
78142;BME280;67393;52.620;13.482;2023-12-29T03:18:59;100272.72;;;8.47;84.81
78142;BME280;67393;52.620;13.482;2023-12-29T03:21:26;100281.59;;;8.44;84.59
78142;BME280;67393;52.620;13.482;2023-12-29T03:23:52;100276.28;;;8.46;84.23
78142;BME280;67393;52.620;13.482;2023-12-29T03:26:20;100249.72;;;8.49;84.58
78142;BME280;67393;52.620;13.482;2023-12-29T03:28:46;100271.00;;;8.44;84.85
78142;BME280;67393;52.620;13.482;2023-12-29T03:31:12;100261.34;;;8.43;84.75
78142;BME280;67393;52.620;13.482;2023-12-29T03:33:39;100260.41;;;8.46;84.38
78142;BME280;67393;52.620;13.482;2023-12-29T03:36:06;100250.56;;;8.51;84.73
78142;BME280;67393;52.620;13.482;2023-12-29T03:38:32;100255.91;;;8.49;85.04
78142;BME280;67393;52.620;13.482;2023-12-29T03:40:58;100260.31;;;8.49;84.07
78142;BME280;67393;52.620;13.482;2023-12-29T03:43:25;100257.44;;;8.56;83.75
78142;BME280;67393;52.620;13.482;2023-12-29T03:45:51;100250.44;;;8.55;83.68
78142;BME280;67393;52.620;13.482;2023-12-29T03:48:18;100254.91;;;8.53;84.56
78142;BME280;67393;52.620;13.482;2023-12-29T03:50:44;100246.00;;;8.56;84.58
78142;BME280;67393;52.620;13.482;2023-12-29T03:53:11;100235.41;;;8.58;83.67
78142;BME280;67393;52.620;13.482;2023-12-29T03:55:37;100239.72;;;8.60;84.04
78142;BME280;67393;52.620;13.482;2023-12-29T03:58:03;100232.56;;;8.64;83.69
78142;BME280;67393;52.620;13.482;2023-12-29T04:00:30;100242.22;;;8.66;83.08
78142;BME280;67393;52.620;13.482;2023-12-29T04:02:56;100228.94;;;8.68;83.33
78142;BME280;67393;52.620;13.482;2023-12-29T04:05:23;100224.41;;;8.73;83.13
78142;BME280;67393;52.620;13.482;2023-12-29T04:07:49;100241.28;;;8.67;82.84
78142;BME280;67393;52.620;13.482;2023-12-29T04:10:15;100217.25;;;8.76;82.46
78142;BME280;67393;52.620;13.482;2023-12-29T04:12:42;100218.19;;;8.74;82.41
78142;BME280;67393;52.620;13.482;2023-12-29T04:15:08;100212.97;;;8.71;84.15
78142;BME280;67393;52.620;13.482;2023-12-29T04:17:35;100202.91;;;8.52;86.98
78142;BME280;67393;52.620;13.482;2023-12-29T04:20:02;100206.06;;;8.34;89.14
78142;BME280;67393;52.620;13.482;2023-12-29T04:22:28;100193.97;;;8.24;90.19
78142;BME280;67393;52.620;13.482;2023-12-29T04:24:54;100196.78;;;8.18;90.35
78142;BME280;67393;52.620;13.482;2023-12-29T04:27:21;100186.00;;;8.25;89.07
78142;BME280;67393;52.620;13.482;2023-12-29T04:29:48;100199.09;;;8.30;88.85
78142;BME280;67393;52.620;13.482;2023-12-29T04:32:14;100178.72;;;8.33;88.15
78142;BME280;67393;52.620;13.482;2023-12-29T04:34:41;100170.72;;;8.37;87.09
78142;BME280;67393;52.620;13.482;2023-12-29T04:37:07;100168.13;;;8.35;87.19
78142;BME280;67393;52.620;13.482;2023-12-29T04:39:33;100172.44;;;8.39;87.36
78142;BME280;67393;52.620;13.482;2023-12-29T04:42:00;100175.81;;;8.44;86.50
78142;BME280;67393;52.620;13.482;2023-12-29T04:44:26;100171.38;;;8.45;85.33
78142;BME280;67393;52.620;13.482;2023-12-29T04:46:53;100169.59;;;8.47;86.11
78142;BME280;67393;52.620;13.482;2023-12-29T04:49:19;100173.22;;;8.43;85.84
78142;BME280;67393;52.620;13.482;2023-12-29T04:51:45;100165.44;;;8.38;86.24
78142;BME280;67393;52.620;13.482;2023-12-29T04:54:12;100162.78;;;8.37;86.67
78142;BME280;67393;52.620;13.482;2023-12-29T04:56:38;100159.25;;;8.38;86.05
78142;BME280;67393;52.620;13.482;2023-12-29T04:59:04;100160.13;;;8.37;87.00
78142;BME280;67393;52.620;13.482;2023-12-29T05:01:31;100171.59;;;8.39;86.47
78142;BME280;67393;52.620;13.482;2023-12-29T05:03:57;100166.03;;;8.48;86.18
78142;BME280;67393;52.620;13.482;2023-12-29T05:06:24;100159.94;;;8.44;85.90
78142;BME280;67393;52.620;13.482;2023-12-29T05:08:50;100159.94;;;8.44;86.07
78142;BME280;67393;52.620;13.482;2023-12-29T05:11:16;100173.94;;;8.49;85.61
78142;BME280;67393;52.620;13.482;2023-12-29T05:13:43;100167.72;;;8.50;85.79
78142;BME280;67393;52.620;13.482;2023-12-29T05:16:09;100172.19;;;8.48;86.07
78142;BME280;67393;52.620;13.482;2023-12-29T05:18:36;100160.72;;;8.49;86.31
78142;BME280;67393;52.620;13.482;2023-12-29T05:21:02;100167.72;;;8.50;85.60
78142;BME280;67393;52.620;13.482;2023-12-29T05:23:29;100169.31;;;8.56;85.95
78142;BME280;67393;52.620;13.482;2023-12-29T05:25:55;100167.50;;;8.58;85.35
78142;BME280;67393;52.620;13.482;2023-12-29T05:28:21;100163.66;;;8.68;86.29
78142;BME280;67393;52.620;13.482;2023-12-29T05:30:48;100158.34;;;8.70;85.02
78142;BME280;67393;52.620;13.482;2023-12-29T05:33:14;100154.63;;;8.75;84.71
78142;BME280;67393;52.620;13.482;2023-12-29T05:35:41;100158.19;;;8.74;85.72
78142;BME280;67393;52.620;13.482;2023-12-29T05:38:07;100141.25;;;8.80;84.97
78142;BME280;67393;52.620;13.482;2023-12-29T05:40:34;100154.56;;;8.78;85.21
78142;BME280;67393;52.620;13.482;2023-12-29T05:43:00;100150.13;;;8.79;85.10
78142;BME280;67393;52.620;13.482;2023-12-29T05:45:26;100142.16;;;8.80;84.62
78142;BME280;67393;52.620;13.482;2023-12-29T05:47:53;100147.31;;;8.85;84.58
78142;BME280;67393;52.620;13.482;2023-12-29T05:50:19;100146.38;;;8.86;85.45
78142;BME280;67393;52.620;13.482;2023-12-29T05:52:45;100143.88;;;8.82;84.97
78142;BME280;67393;52.620;13.482;2023-12-29T05:55:12;100163.19;;;8.85;84.89
78142;BME280;67393;52.620;13.482;2023-12-29T05:57:38;100160.38;;;8.90;85.13
78142;BME280;67393;52.620;13.482;2023-12-29T06:00:05;100165.63;;;8.91;84.90
78142;BME280;67393;52.620;13.482;2023-12-29T06:02:32;100151.34;;;8.97;84.19
78142;BME280;67393;52.620;13.482;2023-12-29T06:04:58;100137.16;;;8.99;84.25
78142;BME280;67393;52.620;13.482;2023-12-29T06:07:25;100133.59;;;9.00;84.40
78142;BME280;67393;52.620;13.482;2023-12-29T06:09:51;100155.94;;;8.92;84.74
78142;BME280;67393;52.620;13.482;2023-12-29T06:12:17;100144.44;;;8.93;84.29
78142;BME280;67393;52.620;13.482;2023-12-29T06:14:44;100138.03;;;9.00;84.27
78142;BME280;67393;52.620;13.482;2023-12-29T06:17:10;100130.91;;;9.02;83.74
78142;BME280;67393;52.620;13.482;2023-12-29T06:19:37;100144.28;;;8.97;84.45
78142;BME280;67393;52.620;13.482;2023-12-29T06:22:03;100134.47;;;9.01;83.77
78142;BME280;67393;52.620;13.482;2023-12-29T06:24:30;100150.09;;;9.09;83.33
78142;BME280;67393;52.620;13.482;2023-12-29T06:26:56;100151.75;;;9.13;82.92
78142;BME280;67393;52.620;13.482;2023-12-29T06:29:22;100148.16;;;9.14;82.49
78142;BME280;67393;52.620;13.482;2023-12-29T06:31:49;100161.47;;;9.12;82.31
78142;BME280;67393;52.620;13.482;2023-12-29T06:34:15;100164.88;;;9.16;82.97
78142;BME280;67393;52.620;13.482;2023-12-29T06:36:42;100164.03;;;9.15;81.77
78142;BME280;67393;52.620;13.482;2023-12-29T06:39:08;100154.91;;;9.24;81.57
78142;BME280;67393;52.620;13.482;2023-12-29T06:41:35;100166.38;;;9.24;81.61
78142;BME280;67393;52.620;13.482;2023-12-29T06:44:01;100151.34;;;9.25;81.06
78142;BME280;67393;52.620;13.482;2023-12-29T06:46:27;100135.44;;;9.26;81.08
78142;BME280;67393;52.620;13.482;2023-12-29T06:48:54;100140.81;;;9.23;80.96
78142;BME280;67393;52.620;13.482;2023-12-29T06:51:21;100142.44;;;9.27;81.26
78142;BME280;67393;52.620;13.482;2023-12-29T06:53:47;100149.53;;;9.27;80.59
78142;BME280;67393;52.620;13.482;2023-12-29T06:56:17;100137.84;;;9.34;80.50
78142;BME280;67393;52.620;13.482;2023-12-29T06:58:44;100132.78;;;9.26;81.02
78142;BME280;67393;52.620;13.482;2023-12-29T07:01:10;100134.69;;;9.21;81.29
78142;BME280;67393;52.620;13.482;2023-12-29T07:03:36;100146.88;;;9.27;80.48
78142;BME280;67393;52.620;13.482;2023-12-29T07:06:03;100145.13;;;9.26;80.59
78142;BME280;67393;52.620;13.482;2023-12-29T07:08:30;100146.75;;;9.30;80.21
78142;BME280;67393;52.620;13.482;2023-12-29T07:10:56;100145.13;;;9.26;80.80
78142;BME280;67393;52.620;13.482;2023-12-29T07:13:22;100148.94;;;9.17;81.35
78142;BME280;67393;52.620;13.482;2023-12-29T07:15:49;100150.78;;;9.15;81.22
78142;BME280;67393;52.620;13.482;2023-12-29T07:18:15;100143.56;;;9.20;80.79
78142;BME280;67393;52.620;13.482;2023-12-29T07:20:42;100148.59;;;9.28;80.04
78142;BME280;67393;52.620;13.482;2023-12-29T07:23:09;100150.16;;;9.35;80.71
78142;BME280;67393;52.620;13.482;2023-12-29T07:25:35;100155.28;;;9.40;80.70
78142;BME280;67393;52.620;13.482;2023-12-29T07:28:01;100153.41;;;9.43;80.56
78142;BME280;67393;52.620;13.482;2023-12-29T07:30:28;100149.84;;;9.44;80.25
78142;BME280;67393;52.620;13.482;2023-12-29T07:32:55;100161.19;;;9.48;79.99
78142;BME280;67393;52.620;13.482;2023-12-29T07:35:21;100174.50;;;9.46;80.05
78142;BME280;67393;52.620;13.482;2023-12-29T07:37:48;100166.56;;;9.46;79.84
78142;BME280;67393;52.620;13.482;2023-12-29T07:40:14;100168.28;;;9.47;79.75
78142;BME280;67393;52.620;13.482;2023-12-29T07:42:41;100173.50;;;9.50;79.80
78142;BME280;67393;52.620;13.482;2023-12-29T07:45:08;100164.63;;;9.51;80.31
78142;BME280;67393;52.620;13.482;2023-12-29T07:47:34;100179.59;;;9.52;80.08
78142;BME280;67393;52.620;13.482;2023-12-29T07:50:01;100176.22;;;9.47;79.64
78142;BME280;67393;52.620;13.482;2023-12-29T07:52:27;100168.38;;;9.44;80.44
78142;BME280;67393;52.620;13.482;2023-12-29T07:54:54;100171.13;;;9.41;81.10
78142;BME280;67393;52.620;13.482;2023-12-29T07:57:20;100154.38;;;9.41;81.17
78142;BME280;67393;52.620;13.482;2023-12-29T07:59:46;100178.19;;;9.41;81.35
78142;BME280;67393;52.620;13.482;2023-12-29T08:02:13;100182.72;;;9.37;81.17
78142;BME280;67393;52.620;13.482;2023-12-29T08:04:39;100174.78;;;9.37;81.26
78142;BME280;67393;52.620;13.482;2023-12-29T08:07:05;100172.81;;;9.44;81.42
78142;BME280;67393;52.620;13.482;2023-12-29T08:09:32;100185.00;;;9.49;81.04
78142;BME280;67393;52.620;13.482;2023-12-29T08:11:58;100176.94;;;9.52;80.56
78142;BME280;67393;52.620;13.482;2023-12-29T08:14:25;100174.03;;;9.60;80.18
78142;BME280;67393;52.620;13.482;2023-12-29T08:16:51;100174.91;;;9.61;80.82
78142;BME280;67393;52.620;13.482;2023-12-29T08:19:17;100181.19;;;9.58;81.10
78142;BME280;67393;52.620;13.482;2023-12-29T08:21:44;100173.78;;;9.68;80.64
78142;BME280;67393;52.620;13.482;2023-12-29T08:24:10;100174.63;;;9.70;80.24
78142;BME280;67393;52.620;13.482;2023-12-29T08:26:44;100167.38;;;9.75;80.47
78142;BME280;67393;52.620;13.482;2023-12-29T08:29:10;100165.59;;;9.75;79.73
78142;BME280;67393;52.620;13.482;2023-12-29T08:31:36;100162.06;;;9.75;79.91
78142;BME280;67393;52.620;13.482;2023-12-29T08:34:03;100174.41;;;9.76;79.56
78142;BME280;67393;52.620;13.482;2023-12-29T08:36:29;100184.75;;;9.84;79.60
78142;BME280;67393;52.620;13.482;2023-12-29T08:38:55;100180.16;;;9.89;79.14
78142;BME280;67393;52.620;13.482;2023-12-29T08:41:22;100186.00;;;9.98;79.02
78142;BME280;67393;52.620;13.482;2023-12-29T08:43:48;100170.97;;;9.99;78.46
78142;BME280;67393;52.620;13.482;2023-12-29T08:46:15;100174.53;;;9.98;78.25
78142;BME280;67393;52.620;13.482;2023-12-29T08:48:41;100177.41;;;9.92;79.21
78142;BME280;67393;52.620;13.482;2023-12-29T08:51:08;100166.84;;;9.90;79.71
78142;BME280;67393;52.620;13.482;2023-12-29T08:53:34;100171.03;;;9.97;79.36
78142;BME280;67393;52.620;13.482;2023-12-29T08:56:03;100172.75;;;9.98;77.92
78142;BME280;67393;52.620;13.482;2023-12-29T08:58:31;100179.69;;;10.02;78.25
78142;BME280;67393;52.620;13.482;2023-12-29T09:00:57;100168.13;;;10.05;77.83
78142;BME280;67393;52.620;13.482;2023-12-29T09:03:24;100184.50;;;10.16;77.41
78142;BME280;67393;52.620;13.482;2023-12-29T09:05:50;100184.22;;;10.25;77.70
78142;BME280;67393;52.620;13.482;2023-12-29T09:08:17;100191.91;;;10.33;76.83
78142;BME280;67393;52.620;13.482;2023-12-29T09:10:43;100203.75;;;10.48;76.55
78142;BME280;67393;52.620;13.482;2023-12-29T09:13:10;100190.00;;;10.62;75.62
78142;BME280;67393;52.620;13.482;2023-12-29T09:15:36;100196.06;;;10.65;75.01
78142;BME280;67393;52.620;13.482;2023-12-29T09:18:03;100191.34;;;10.48;75.66
78142;BME280;67393;52.620;13.482;2023-12-29T09:20:30;100186.56;;;10.35;76.16
78142;BME280;67393;52.620;13.482;2023-12-29T09:22:56;100180.69;;;10.25;77.00
78142;BME280;67393;52.620;13.482;2023-12-29T09:25:22;100190.50;;;10.21;77.39
78142;BME280;67393;52.620;13.482;2023-12-29T09:27:49;100198.38;;;10.24;77.42
78142;BME280;67393;52.620;13.482;2023-12-29T09:30:16;100198.34;;;10.26;78.55
78142;BME280;67393;52.620;13.482;2023-12-29T09:32:42;100194.84;;;10.24;78.62
78142;BME280;67393;52.620;13.482;2023-12-29T09:35:08;100204.56;;;10.25;77.60
78142;BME280;67393;52.620;13.482;2023-12-29T09:37:35;100195.53;;;10.31;78.08
78142;BME280;67393;52.620;13.482;2023-12-29T09:40:01;100179.66;;;10.29;77.83
78142;BME280;67393;52.620;13.482;2023-12-29T09:42:28;100186.59;;;10.33;78.07
78142;BME280;67393;52.620;13.482;2023-12-29T09:44:56;100193.69;;;10.33;77.22
78142;BME280;67393;52.620;13.482;2023-12-29T09:47:23;100203.22;;;10.38;77.96
78142;BME280;67393;52.620;13.482;2023-12-29T09:49:53;100187.34;;;10.37;77.80
78142;BME280;67393;52.620;13.482;2023-12-29T09:52:21;100174.91;;;10.39;77.08
78142;BME280;67393;52.620;13.482;2023-12-29T09:54:50;100182.69;;;10.43;77.13
78142;BME280;67393;52.620;13.482;2023-12-29T09:57:18;100181.66;;;10.47;77.26
78142;BME280;67393;52.620;13.482;2023-12-29T09:59:45;100177.28;;;10.46;76.88
78142;BME280;67393;52.620;13.482;2023-12-29T10:02:15;100195.03;;;10.44;76.65
78142;BME280;67393;52.620;13.482;2023-12-29T10:04:41;100168.50;;;10.44;76.37
78142;BME280;67393;52.620;13.482;2023-12-29T10:07:12;100171.88;;;10.49;76.52
78142;BME280;67393;52.620;13.482;2023-12-29T10:09:40;100165.41;;;10.57;75.57
78142;BME280;67393;52.620;13.482;2023-12-29T10:12:09;100163.78;;;10.52;75.86
78142;BME280;67393;52.620;13.482;2023-12-29T10:14:49;100174.53;;;10.49;75.90
78142;BME280;67393;52.620;13.482;2023-12-29T10:17:41;100172.19;;;10.40;75.51
78142;BME280;67393;52.620;13.482;2023-12-29T10:20:16;100170.13;;;10.48;75.54
78142;BME280;67393;52.620;13.482;2023-12-29T10:25:28;100169.25;;;10.48;75.21
78142;BME280;67393;52.620;13.482;2023-12-29T10:27:55;100178.09;;;10.48;75.76
78142;BME280;67393;52.620;13.482;2023-12-29T10:30:22;100165.38;;;10.58;75.24
78142;BME280;67393;52.620;13.482;2023-12-29T10:32:59;100157.44;;;10.57;75.37
78142;BME280;67393;52.620;13.482;2023-12-29T10:35:26;100157.28;;;10.61;74.63
78142;BME280;67393;52.620;13.482;2023-12-29T10:37:54;100152.38;;;10.74;74.47
78142;BME280;67393;52.620;13.482;2023-12-29T10:40:20;100138.63;;;10.86;74.48
78142;BME280;67393;52.620;13.482;2023-12-29T10:42:54;100157.00;;;10.92;73.54
78142;BME280;67393;52.620;13.482;2023-12-29T10:45:20;100155.38;;;10.88;73.36
78142;BME280;67393;52.620;13.482;2023-12-29T10:47:47;100158.16;;;10.85;72.86
78142;BME280;67393;52.620;13.482;2023-12-29T10:50:14;100183.28;;;10.75;73.53
78142;BME280;67393;52.620;13.482;2023-12-29T10:52:40;100184.22;;;10.74;73.39
78142;BME280;67393;52.620;13.482;2023-12-29T10:55:09;100155.50;;;10.85;72.39
78142;BME280;67393;52.620;13.482;2023-12-29T10:57:36;100167.50;;;10.95;71.54
78142;BME280;67393;52.620;13.482;2023-12-29T11:00:04;100185.25;;;10.93;72.00
78142;BME280;67393;52.620;13.482;2023-12-29T11:02:30;100183.44;;;10.95;72.51
78142;BME280;67393;52.620;13.482;2023-12-29T11:05:08;100182.69;;;10.92;72.05
78142;BME280;67393;52.620;13.482;2023-12-29T11:07:39;100184.50;;;10.90;72.01
78142;BME280;67393;52.620;13.482;2023-12-29T11:10:07;100182.91;;;10.86;72.01
78142;BME280;67393;52.620;13.482;2023-12-29T11:12:38;100194.34;;;10.88;72.09
78142;BME280;67393;52.620;13.482;2023-12-29T11:15:05;100175.56;;;10.92;71.89
78142;BME280;67393;52.620;13.482;2023-12-29T11:17:34;100189.72;;;10.93;71.50
78142;BME280;67393;52.620;13.482;2023-12-29T11:20:03;100183.44;;;10.95;72.45
78142;BME280;67393;52.620;13.482;2023-12-29T11:22:31;100172.06;;;10.92;71.46
78142;BME280;67393;52.620;13.482;2023-12-29T11:24:58;100174.28;;;11.03;71.37
78142;BME280;67393;52.620;13.482;2023-12-29T11:27:29;100157.47;;;11.02;71.16
78142;BME280;67393;52.620;13.482;2023-12-29T11:29:58;100155.94;;;10.96;71.01
78142;BME280;67393;52.620;13.482;2023-12-29T11:32:32;100155.84;;;10.99;70.72
78142;BME280;67393;52.620;13.482;2023-12-29T11:35:13;100154.25;;;10.94;70.85
78142;BME280;67393;52.620;13.482;2023-12-29T11:37:52;100163.91;;;10.96;70.57
78142;BME280;67393;52.620;13.482;2023-12-29T11:40:32;100155.13;;;10.94;71.08
78142;BME280;67393;52.620;13.482;2023-12-29T11:43:03;100143.66;;;10.94;70.81
78142;BME280;67393;52.620;13.482;2023-12-29T11:45:33;100142.66;;;10.96;71.14
78142;BME280;67393;52.620;13.482;2023-12-29T11:48:00;100135.63;;;10.95;70.22
78142;BME280;67393;52.620;13.482;2023-12-29T11:50:33;100126.75;;;10.96;70.04
78142;BME280;67393;52.620;13.482;2023-12-29T11:53:00;100141.50;;;11.04;70.16
78142;BME280;67393;52.620;13.482;2023-12-29T11:55:34;100122.00;;;11.05;69.89
78142;BME280;67393;52.620;13.482;2023-12-29T11:58:01;100116.59;;;11.06;69.64
78142;BME280;67393;52.620;13.482;2023-12-29T12:00:44;100131.88;;;11.01;69.84
78142;BME280;67393;52.620;13.482;2023-12-29T12:03:30;100129.09;;;11.04;70.30
78142;BME280;67393;52.620;13.482;2023-12-29T12:05:57;100127.41;;;11.02;70.24
78142;BME280;67393;52.620;13.482;2023-12-29T12:10:57;100125.50;;;11.05;69.78
78142;BME280;67393;52.620;13.482;2023-12-29T12:13:46;100133.41;;;11.07;69.55
78142;BME280;67393;52.620;13.482;2023-12-29T12:19:06;100122.84;;;11.05;70.10
78142;BME280;67393;52.620;13.482;2023-12-29T12:21:33;100137.00;;;11.06;70.78
78142;BME280;67393;52.620;13.482;2023-12-29T12:24:03;100126.84;;;10.93;71.06
78142;BME280;67393;52.620;13.482;2023-12-29T12:26:30;100117.78;;;10.99;70.76
78142;BME280;67393;52.620;13.482;2023-12-29T12:28:57;100132.09;;;10.95;70.86
78142;BME280;67393;52.620;13.482;2023-12-29T12:31:24;100139.44;;;10.88;71.22
78142;BME280;67393;52.620;13.482;2023-12-29T12:33:57;100130.22;;;10.75;73.00
78142;BME280;67393;52.620;13.482;2023-12-29T12:36:23;100129.19;;;10.56;76.12
78142;BME280;67393;52.620;13.482;2023-12-29T12:38:58;100136.72;;;10.18;82.80
78142;BME280;67393;52.620;13.482;2023-12-29T12:41:26;100138.13;;;9.78;88.78
78142;BME280;67393;52.620;13.482;2023-12-29T12:44:10;100131.28;;;9.46;93.74
78142;BME280;67393;52.620;13.482;2023-12-29T12:46:42;100126.41;;;9.32;96.63
78142;BME280;67393;52.620;13.482;2023-12-29T12:49:10;100142.00;;;9.13;100.00
78142;BME280;67393;52.620;13.482;2023-12-29T12:51:37;100141.41;;;9.05;100.00
78142;BME280;67393;52.620;13.482;2023-12-29T12:54:03;100129.97;;;9.03;100.00
78142;BME280;67393;52.620;13.482;2023-12-29T12:56:30;100123.03;;;8.99;100.00
78142;BME280;67393;52.620;13.482;2023-12-29T12:58:57;100133.09;;;8.88;100.00
78142;BME280;67393;52.620;13.482;2023-12-29T13:01:25;100128.50;;;8.94;100.00